Time;durP1;ratioP1;P1;durP2;ratioP2;P2;SDS_P1;SDS_P2;PMS_P1;PMS_P2;Temp;Humidity;BMP_temperature;BMP_pressure;BME280_temperature;BME280_humidity;BME280_pressure;Samples;Min_cycle;Max_cycle;Signal;HPM_P1;HPM_P2
2022/09/17 00:00:55;;;;;;;5.55;0.50;;;12.20;99.90;;;;;;6124607;23;20021;-85
2022/09/17 00:03:22;;;;;;;4.50;0.50;;;12.20;99.90;;;;;;6124984;23;20017;-85
2022/09/17 00:05:48;;;;;;;5.20;0.85;;;12.20;99.90;;;;;;6125075;23;20108;-85
2022/09/17 00:08:14;;;;;;;2.23;0.50;;;12.20;99.90;;;;;;6125620;22;20022;-86
2022/09/17 00:10:41;;;;;;;2.63;0.38;;;12.20;99.90;;;;;;6147649;22;20002;-84
2022/09/17 00:13:08;;;;;;;1.05;0.10;;;12.20;99.90;;;;;;6136630;23;20024;-86
2022/09/17 00:15:42;;;;;;;4.43;0.75;;;12.20;99.90;;;;;;6126419;23;20014;-85
2022/09/17 00:18:08;;;;;;;4.57;0.52;;;12.20;99.90;;;;;;6124997;23;20032;-85
2022/09/17 00:20:39;;;;;;;4.13;0.80;;;12.30;99.90;;;;;;6227293;23;20028;-85
2022/09/17 00:23:05;;;;;;;2.03;0.50;;;12.20;99.90;;;;;;6125507;23;20021;-85
2022/09/17 00:25:31;;;;;;;2.95;0.40;;;12.30;99.90;;;;;;6228904;23;20014;-87
2022/09/17 00:27:57;;;;;;;5.72;0.60;;;12.20;99.90;;;;;;6126107;23;20021;-86
2022/09/17 00:30:23;;;;;;;4.80;0.73;;;12.20;99.90;;;;;;6152245;23;20029;-85
2022/09/17 00:32:49;;;;;;;5.20;0.70;;;12.20;99.90;;;;;;6255135;22;20040;-85
2022/09/17 00:35:15;;;;;;;;;;;12.20;99.90;;;;;;6102898;23;20017;-85
2022/09/17 00:37:40;;;;;;;3.00;0.40;;;12.20;99.90;;;;;;6126122;23;19920;-85
2022/09/17 00:40:07;;;;;;;7.37;0.70;;;12.10;99.90;;;;;;6126397;23;20068;-83
2022/09/17 00:42:33;;;;;;;4.68;0.47;;;12.10;99.90;;;;;;6151914;23;20021;-85
2022/09/17 00:44:59;;;;;;;2.03;0.50;;;12.00;99.90;;;;;;6229109;23;20067;-85
2022/09/17 00:47:30;;;;;;;;;;;11.90;99.90;;;;;;6102320;23;20021;-85
2022/09/17 00:50:05;;;;;;;4.00;0.50;;;11.90;99.90;;;;;;6126878;23;19916;-85
2022/09/17 00:52:45;;;;;;;4.35;0.50;;;11.90;99.90;;;;;;6101820;23;20353;-85
2022/09/17 00:55:19;;;;;;;2.75;0.68;;;11.80;99.90;;;;;;6101888;23;20085;-85
2022/09/17 00:57:46;;;;;;;6.63;0.70;;;11.80;99.90;;;;;;6126832;23;20014;-86
2022/09/17 01:00:14;;;;;;;3.78;0.55;;;11.80;99.90;;;;;;6126001;23;20077;-85
2022/09/17 01:02:41;;;;;;;5.80;0.82;;;11.90;99.90;;;;;;6203721;23;20096;-86
2022/09/17 01:05:07;;;;;;;3.17;0.50;;;11.90;99.90;;;;;;6125761;23;20078;-83
2022/09/17 01:08:06;;;;;;;6.28;0.82;;;11.90;99.90;;;;;;6203164;22;20026;-85
2022/09/17 01:10:54;;;;;;;4.25;0.60;;;11.90;99.90;;;;;;6126056;23;20053;-85
2022/09/17 01:13:48;;;;;;;5.50;0.70;;;11.90;99.90;;;;;;6125870;23;20391;-86
2022/09/17 01:16:35;;;;;;;4.35;0.52;;;11.90;99.90;;;;;;6102137;23;20105;-85
2022/09/17 01:19:40;;;;;;;5.57;0.47;;;12.00;99.90;;;;;;6102308;23;20025;-85
2022/09/17 01:22:13;;;;;;;3.50;1.40;;;12.00;99.90;;;;;;6101291;23;20018;-85
2022/09/17 01:25:24;;;;;;;5.25;0.70;;;12.00;99.90;;;;;;6102408;23;20025;-85
2022/09/17 01:28:00;;;;;;;5.35;0.50;;;12.00;99.90;;;;;;6102901;23;20028;-86
2022/09/17 01:30:50;;;;;;;2.95;0.45;;;12.00;99.90;;;;;;6151896;23;20024;-86
2022/09/17 01:33:27;;;;;;;4.50;0.50;;;12.10;99.90;;;;;;6102164;23;20021;-84
2022/09/17 01:36:28;;;;;;;3.05;0.60;;;12.00;99.90;;;;;;6125645;23;20022;-86
2022/09/17 01:39:04;;;;;;;4.22;0.60;;;12.00;99.90;;;;;;6129189;23;20020;-84
2022/09/17 01:41:32;;;;;;;6.70;0.80;;;12.00;99.90;;;;;;6101688;23;20564;-86
2022/09/17 01:44:11;;;;;;;4.55;0.57;;;12.10;99.90;;;;;;6102417;23;20074;-87
2022/09/17 01:46:55;;;;;;;4.63;0.70;;;12.10;99.90;;;;;;6102038;23;20028;-86
2022/09/17 01:49:24;;;;;;;2.85;0.52;;;12.10;99.90;;;;;;6125749;23;20408;-86
2022/09/17 01:51:51;;;;;;;4.32;0.47;;;12.10;99.90;;;;;;6125853;23;20058;-86
2022/09/17 01:54:24;;;;;;;3.25;0.40;;;12.10;99.90;;;;;;6102410;23;20075;-86
2022/09/17 01:57:03;;;;;;;2.22;0.40;;;12.10;99.90;;;;;;6101672;23;20017;-87
2022/09/17 02:00:04;;;;;;;3.53;0.60;;;12.00;99.90;;;;;;6101350;23;20024;-87
2022/09/17 02:02:39;;;;;;;5.93;0.57;;;12.00;99.90;;;;;;6105133;23;20021;-86
2022/09/17 02:05:09;;;;;;;5.22;0.68;;;11.90;99.90;;;;;;6101494;23;20014;-87
2022/09/17 02:07:43;;;;;;;4.05;1.02;;;11.90;99.90;;;;;;6101054;23;20021;-86
2022/09/17 02:10:33;;;;;;;5.15;0.75;;;11.90;99.90;;;;;;6101235;23;20024;-86
2022/09/17 02:13:08;;;;;;;5.57;0.52;;;11.80;99.90;;;;;;6101292;23;20024;-87
2022/09/17 02:15:39;;;;;;;2.03;0.40;;;11.80;99.90;;;;;;6101682;23;20022;-86
2022/09/17 02:18:24;;;;;;;3.10;0.75;;;11.70;99.90;;;;;;6102077;23;20017;-87
2022/09/17 02:20:55;;;;;;;3.35;0.50;;;11.60;99.90;;;;;;6151676;23;20393;-85
2022/09/17 02:23:28;;;;;;;5.43;0.75;;;11.60;99.90;;;;;;6125672;23;20104;-87
2022/09/17 02:26:03;;;;;;;3.08;0.55;;;11.60;99.90;;;;;;6150179;23;20013;-85
2022/09/17 02:28:43;;;;;;;5.05;0.52;;;11.60;99.90;;;;;;6126134;23;20029;-85
2022/09/17 02:31:10;;;;;;;3.35;0.40;;;11.60;99.90;;;;;;6151471;23;20017;-85
2022/09/17 02:33:38;;;;;;;2.78;0.40;;;11.70;99.90;;;;;;6202691;23;20018;-86
2022/09/17 02:36:04;;;;;;;3.63;0.40;;;11.70;99.90;;;;;;6125673;23;20071;-86
2022/09/17 02:38:30;;;;;;;2.47;0.60;;;11.80;99.90;;;;;;6125547;23;20071;-86
2022/09/17 02:41:20;;;;;;;2.38;0.50;;;11.70;99.90;;;;;;6125292;23;20063;-86
2022/09/17 02:44:23;;;;;;;3.47;0.65;;;11.80;99.90;;;;;;6125600;23;20029;-86
2022/09/17 02:47:15;;;;;;;4.20;0.50;;;11.80;99.90;;;;;;6151139;23;20026;-85
2022/09/17 02:49:53;;;;;;;4.22;0.60;;;11.90;99.90;;;;;;6150166;23;20029;-86
2022/09/17 02:52:44;;;;;;;3.90;0.50;;;11.90;99.90;;;;;;6101546;23;20400;-87
2022/09/17 02:55:30;;;;;;;4.30;0.32;;;11.90;99.90;;;;;;6117063;23;20025;-84
2022/09/17 02:58:26;;;;;;;2.42;0.95;;;11.90;99.90;;;;;;6140148;23;20029;-85
2022/09/17 03:00:52;;;;;;;3.13;0.32;;;11.90;99.90;;;;;;6125763;23;20328;-86
2022/09/17 03:03:38;;;;;;;3.47;0.57;;;12.00;99.90;;;;;;6150034;23;20018;-86
2022/09/17 03:06:04;;;;;;;3.10;0.30;;;11.90;99.90;;;;;;6101379;23;20078;-84
2022/09/17 03:08:39;;;;;;;3.45;0.40;;;11.90;99.90;;;;;;6253793;22;20013;-86
2022/09/17 03:11:07;;;;;;;3.00;0.38;;;11.80;99.90;;;;;;6100782;23;20451;-86
2022/09/17 03:13:35;;;;;;;3.47;0.50;;;11.80;99.90;;;;;;6101087;23;20039;-85
2022/09/17 03:16:05;;;;;;;2.70;0.40;;;11.80;99.90;;;;;;6101241;23;20014;-86
2022/09/17 03:18:31;;;;;;;1.45;0.30;;;11.70;99.90;;;;;;6100939;23;20492;-85
2022/09/17 03:20:57;;;;;;;3.75;0.25;;;11.70;99.90;;;;;;6200984;23;20066;-85
2022/09/17 03:23:23;;;;;;;2.95;0.40;;;11.70;99.90;;;;;;6149551;23;20022;-85
2022/09/17 03:25:49;;;;;;;4.38;0.60;;;11.60;99.90;;;;;;6202260;23;20448;-86
2022/09/17 03:28:15;;;;;;;1.45;0.45;;;11.60;99.90;;;;;;6100656;23;20024;-86
2022/09/17 03:30:45;;;;;;;5.30;0.60;;;11.60;99.90;;;;;;6125855;23;20024;-85
2022/09/17 03:33:11;;;;;;;3.45;0.47;;;11.50;99.90;;;;;;6126210;23;20026;-85
2022/09/17 03:35:37;;;;;;;3.05;0.40;;;11.50;99.90;;;;;;6100798;23;20025;-85
2022/09/17 03:38:03;;;;;;;4.03;0.65;;;11.50;99.90;;;;;;6100823;23;20044;-85
2022/09/17 03:40:29;;;;;;;4.75;0.43;;;11.50;99.90;;;;;;6125199;23;20017;-85
2022/09/17 03:42:55;;;;;;;2.30;0.57;;;11.50;99.90;;;;;;6124919;23;20033;-86
2022/09/17 03:45:20;;;;;;;1.85;0.32;;;11.50;99.90;;;;;;6125097;23;20021;-87
2022/09/17 03:47:46;;;;;;;1.60;0.20;;;11.50;99.90;;;;;;6125469;23;20022;-86
2022/09/17 03:50:12;;;;;;;2.47;0.38;;;11.50;99.90;;;;;;6124926;23;20045;-85
2022/09/17 03:52:38;;;;;;;0.90;0.30;;;11.50;99.90;;;;;;6227339;23;20017;-85
2022/09/17 03:55:04;;;;;;;4.87;0.87;;;11.40;99.90;;;;;;6100795;23;20255;-85
2022/09/17 03:57:30;;;;;;;4.95;0.28;;;11.40;99.90;;;;;;6124898;23;20069;-85
2022/09/17 03:59:56;;;;;;;3.30;0.40;;;11.40;99.90;;;;;;6203578;23;20024;-86
2022/09/17 04:02:21;;;;;;;2.10;0.37;;;11.40;99.90;;;;;;6126233;23;20021;-87
2022/09/17 04:04:47;;;;;;;2.13;0.30;;;11.40;99.90;;;;;;6126486;23;20018;-86
2022/09/17 04:07:13;;;;;;;6.00;0.50;;;11.40;99.90;;;;;;6125848;22;20104;-85
2022/09/17 04:09:38;;;;;;;4.33;0.40;;;11.30;99.90;;;;;;6152351;23;20447;-85
2022/09/17 04:12:04;;;;;;;4.07;0.57;;;11.30;99.90;;;;;;6126442;23;20044;-86
2022/09/17 04:14:30;;;;;;;1.67;0.20;;;11.30;99.90;;;;;;6078149;23;20074;-86
2022/09/17 04:16:57;;;;;;;2.67;0.50;;;11.30;99.90;;;;;;6126061;23;20444;-86
2022/09/17 04:19:23;;;;;;;4.38;0.52;;;11.30;99.90;;;;;;6254523;22;20017;-85
2022/09/17 04:21:49;;;;;;;4.78;0.65;;;11.20;99.90;;;;;;6152189;23;20018;-86
2022/09/17 04:24:15;;;;;;;1.13;0.30;;;11.20;99.90;;;;;;6126149;23;20058;-86
2022/09/17 04:26:41;;;;;;;2.70;0.40;;;11.20;99.90;;;;;;6150891;23;20063;-87
2022/09/17 04:29:06;;;;;;;4.33;1.27;;;11.20;99.90;;;;;;6125998;23;20039;-87
2022/09/17 04:31:32;;;;;;;2.43;0.30;;;11.20;99.90;;;;;;6126326;23;20074;-86
2022/09/17 04:33:58;;;;;;;1.80;0.37;;;11.20;99.90;;;;;;6228748;23;20025;-84
2022/09/17 04:36:23;;;;;;;2.37;0.53;;;11.10;99.90;;;;;;6125958;23;20021;-86
2022/09/17 04:38:49;;;;;;;1.67;0.40;;;11.10;99.90;;;;;;6102205;23;20014;-85
2022/09/17 04:41:15;;;;;;;3.33;0.38;;;11.10;99.90;;;;;;6126148;23;20022;-87
2022/09/17 04:43:41;;;;;;;1.85;0.20;;;11.20;99.90;;;;;;6101853;23;20028;-86
2022/09/17 04:46:07;;;;;;;3.57;0.33;;;11.20;99.90;;;;;;6125907;23;20025;-86
2022/09/17 04:48:32;;;;;;;3.70;0.30;;;11.20;99.90;;;;;;6077848;23;20354;-87
2022/09/17 04:50:58;;;;;;;2.90;0.40;;;11.20;99.90;;;;;;6102032;23;20438;-86
2022/09/17 04:53:24;;;;;;;1.43;0.40;;;11.30;99.90;;;;;;6228652;23;20454;-85
2022/09/17 04:55:49;;;;;;;6.00;0.67;;;11.30;99.90;;;;;;6101903;23;20048;-87
2022/09/17 04:58:15;;;;;;;2.10;0.30;;;11.30;99.90;;;;;;6102970;23;20442;-87
2022/09/17 05:00:41;;;;;;;3.90;0.40;;;11.30;99.90;;;;;;6143001;23;20024;-86
2022/09/17 05:03:07;;;;;;;4.20;0.70;;;11.30;99.90;;;;;;6139061;23;20040;-84
2022/09/17 05:05:32;;;;;;;6.07;0.63;;;11.30;99.90;;;;;;6204869;23;20028;-84
2022/09/17 05:07:58;;;;;;;1.77;0.28;;;11.30;99.90;;;;;;6227280;23;20025;-85
2022/09/17 05:10:25;;;;;;;2.20;0.40;;;11.30;99.90;;;;;;6101305;23;20013;-86
2022/09/17 05:12:54;;;;;;;3.45;0.40;;;11.30;99.90;;;;;;6125798;23;20253;-86
2022/09/17 05:15:22;;;;;;;3.08;0.90;;;11.30;99.90;;;;;;6101533;23;20017;-85
2022/09/17 05:17:47;;;;;;;3.45;0.50;;;11.30;99.90;;;;;;6125721;23;20017;-86
2022/09/17 05:20:14;;;;;;;2.83;0.33;;;11.20;99.90;;;;;;6101885;23;20418;-86
2022/09/17 05:22:51;;;;;;;4.72;0.63;;;11.20;99.90;;;;;;6125851;23;20021;-85
2022/09/17 05:25:19;;;;;;;2.65;0.47;;;11.20;99.90;;;;;;6126072;23;20351;-85
2022/09/17 05:27:45;;;;;;;2.53;0.32;;;11.10;99.90;;;;;;6125738;23;20017;-86
2022/09/17 05:30:12;;;;;;;2.63;0.40;;;11.20;99.90;;;;;;6152162;23;20025;-86
2022/09/17 05:32:38;;;;;;;;;;;11.20;99.90;;;;;;6126363;23;20018;-87
2022/09/17 05:35:10;;;;;;;5.45;0.32;;;11.30;99.90;;;;;;6134727;23;19923;-86
2022/09/17 05:37:35;;;;;;;3.53;0.63;;;11.40;99.90;;;;;;6135388;23;20096;-84
2022/09/17 05:40:04;;;;;;;2.77;0.60;;;11.40;99.90;;;;;;6102100;23;20048;-85
2022/09/17 05:42:30;;;;;;;4.78;0.75;;;11.50;99.90;;;;;;6125837;23;20446;-87
2022/09/17 05:44:56;;;;;;;3.90;0.70;;;11.60;99.90;;;;;;6053703;23;20045;-86
2022/09/17 05:47:21;;;;;;;2.97;0.63;;;11.60;99.90;;;;;;6203904;23;20108;-87
2022/09/17 05:49:47;;;;;;;4.67;0.40;;;11.70;99.90;;;;;;6077755;23;20067;-85
2022/09/17 05:52:28;;;;;;;1.87;0.47;;;11.70;99.90;;;;;;6101748;23;20021;-85
2022/09/17 05:55:06;;;;;;;5.60;0.63;;;11.80;99.90;;;;;;6101836;23;20052;-87
2022/09/17 05:57:32;;;;;;;2.10;0.43;;;11.90;99.90;;;;;;6101310;23;20450;-87
2022/09/17 05:59:58;;;;;;;3.13;0.50;;;11.90;99.90;;;;;;6101645;23;20132;-88
2022/09/17 06:02:26;;;;;;;5.43;0.50;;;11.90;99.90;;;;;;6126328;23;20044;-85
2022/09/17 06:04:52;;;;;;;3.42;0.50;;;11.90;99.90;;;;;;6125949;23;20512;-88
2022/09/17 06:07:18;;;;;;;2.33;0.53;;;12.00;99.90;;;;;;6101887;22;20022;-86
2022/09/17 06:09:45;;;;;;;;;;;12.00;99.90;;;;;;6254495;22;20029;-84
2022/09/17 06:12:10;;;;;;;1.27;0.22;;;12.10;99.90;;;;;;6152000;23;19920;-85
2022/09/17 06:14:36;;;;;;;2.57;0.47;;;12.10;99.90;;;;;;6101684;23;20343;-85
2022/09/17 06:17:02;;;;;;;4.20;0.57;;;12.10;99.90;;;;;;6125452;23;20063;-85
2022/09/17 06:19:27;;;;;;;3.20;0.57;;;12.10;99.90;;;;;;6152189;22;20021;-88
2022/09/17 06:21:54;;;;;;;1.63;0.23;;;12.00;99.90;;;;;;6125402;23;20017;-85
2022/09/17 06:24:20;;;;;;;4.15;0.60;;;11.90;99.90;;;;;;6125961;23;20022;-87
2022/09/17 06:26:45;;;;;;;1.48;0.40;;;11.80;99.90;;;;;;6125911;23;20017;-86
2022/09/17 06:29:13;;;;;;;1.40;0.30;;;11.80;99.90;;;;;;6125846;23;20078;-83
2022/09/17 06:31:45;;;;;;;3.53;0.40;;;11.70;99.90;;;;;;6126754;23;20070;-85
2022/09/17 06:34:14;;;;;;;2.42;0.25;;;11.70;99.90;;;;;;6152176;22;20430;-86
2022/09/17 06:36:40;;;;;;;1.52;0.20;;;11.70;99.90;;;;;;6101668;23;20021;-86
2022/09/17 06:39:06;;;;;;;3.83;0.67;;;11.80;99.90;;;;;;6151572;23;20013;-85
2022/09/17 06:41:32;;;;;;;2.85;0.30;;;11.90;99.90;;;;;;6101397;23;20067;-84
2022/09/17 06:43:58;;;;;;;4.85;0.90;;;12.00;99.90;;;;;;6125947;23;20017;-87
2022/09/17 06:46:24;;;;;;;3.10;0.63;;;12.20;99.90;;;;;;6151848;22;20100;-87
2022/09/17 06:48:56;;;;;;;4.22;0.50;;;12.30;99.90;;;;;;6151989;23;20473;-88
2022/09/17 06:51:45;;;;;;;7.15;0.60;;;12.30;99.90;;;;;;6097457;23;20033;-85
2022/09/17 06:54:17;;;;;;;1.88;0.40;;;12.20;99.90;;;;;;6126077;23;20087;-88
2022/09/17 06:56:46;;;;;;;2.70;0.30;;;12.20;99.90;;;;;;6101460;23;20335;-87
2022/09/17 06:59:11;;;;;;;3.03;1.05;;;12.20;99.90;;;;;;6101456;23;20029;-88
2022/09/17 07:01:37;;;;;;;3.03;0.73;;;12.10;99.90;;;;;;6102484;23;20021;-88
2022/09/17 07:04:04;;;;;;;5.63;0.70;;;12.10;99.90;;;;;;6158762;22;20021;-86
2022/09/17 07:06:35;;;;;;;3.50;0.40;;;12.20;99.90;;;;;;6077770;23;20022;-87
2022/09/17 07:09:01;;;;;;;3.60;0.38;;;12.20;99.90;;;;;;6101026;23;20018;-85
2022/09/17 07:11:30;;;;;;;2.97;0.45;;;12.40;99.90;;;;;;6101320;23;20072;-87
2022/09/17 07:13:56;;;;;;;1.85;0.60;;;12.40;99.90;;;;;;6151545;22;20037;-88
2022/09/17 07:16:22;;;;;;;5.15;0.50;;;12.60;99.90;;;;;;6125838;23;20018;-84
2022/09/17 07:18:48;;;;;;;5.95;0.70;;;12.60;99.90;;;;;;6126162;23;20017;-88
2022/09/17 07:21:13;;;;;;;0.87;0.50;;;12.60;99.90;;;;;;6151390;23;20519;-84
2022/09/17 07:23:39;;;;;;;2.90;0.40;;;12.50;99.90;;;;;;6152242;22;20342;-85
2022/09/17 07:26:12;;;;;;;2.42;0.50;;;12.40;99.90;;;;;;6125471;23;20064;-87
2022/09/17 07:28:39;;;;;;;3.78;0.30;;;12.30;99.90;;;;;;6125635;23;20022;-85
2022/09/17 07:31:06;;;;;;;2.30;0.45;;;12.20;99.90;;;;;;6125352;23;20022;-86
2022/09/17 07:33:33;;;;;;;;;;;12.20;99.90;;;;;;6101222;23;20036;-85
2022/09/17 07:36:11;;;;;;;2.27;0.30;;;12.10;99.90;;;;;;6154017;22;19916;-85
2022/09/17 07:38:46;;;;;;;3.72;0.40;;;12.10;99.90;;;;;;6160170;22;20249;-85
2022/09/17 07:41:13;;;;;;;2.15;0.40;;;12.30;99.90;;;;;;6127010;23;20076;-87
2022/09/17 07:43:40;;;;;;;2.28;0.43;;;12.40;99.90;;;;;;6125121;23;20088;-86
2022/09/17 07:46:09;;;;;;;0.95;0.20;;;12.60;99.90;;;;;;6125104;23;20052;-88
2022/09/17 07:48:34;;;;;;;4.53;0.50;;;12.60;99.90;;;;;;6151048;23;20013;-87
2022/09/17 07:51:00;;;;;;;1.07;0.10;;;12.60;99.90;;;;;;6253361;22;20022;-86
2022/09/17 07:53:38;;;;;;;1.10;0.17;;;12.60;99.90;;;;;;6124978;23;20017;-86
2022/09/17 07:56:26;;;;;;;2.10;0.50;;;12.50;99.90;;;;;;6201974;23;20060;-83
2022/09/17 07:58:57;;;;;;;1.15;0.20;;;12.40;99.90;;;;;;6100645;23;20508;-86
2022/09/17 08:01:23;;;;;;;2.05;0.30;;;12.30;99.90;;;;;;6100665;23;20067;-85
2022/09/17 08:03:51;;;;;;;0.35;0.13;;;12.20;99.90;;;;;;6202465;23;20017;-83
2022/09/17 08:06:20;;;;;;;2.10;0.15;;;12.10;99.90;;;;;;6125182;23;20018;-85
2022/09/17 08:08:51;;;;;;;2.63;0.38;;;12.10;99.90;;;;;;6100537;23;20055;-86
2022/09/17 08:11:19;;;;;;;4.07;0.30;;;12.10;99.90;;;;;;6098825;23;20025;-85
2022/09/17 08:13:54;;;;;;;1.73;0.17;;;12.10;99.90;;;;;;6125426;23;20017;-87
2022/09/17 08:16:21;;;;;;;0.90;0.40;;;12.10;99.90;;;;;;6202220;23;20025;-84
2022/09/17 08:18:47;;;;;;;4.47;0.52;;;12.10;99.90;;;;;;6100492;23;20013;-85
2022/09/17 08:21:19;;;;;;;;;;;12.20;99.90;;;;;;6151241;23;20067;-85
2022/09/17 08:23:45;;;;;;;4.57;0.35;;;12.30;99.90;;;;;;6124772;23;19955;-87
2022/09/17 08:26:13;;;;;;;2.75;0.30;;;12.40;99.90;;;;;;6150584;23;20025;-89
2022/09/17 08:28:43;;;;;;;2.75;0.35;;;12.50;99.90;;;;;;6149566;23;20326;-85
2022/09/17 08:31:09;;;;;;;4.47;0.40;;;12.50;99.90;;;;;;6125035;23;20089;-86
2022/09/17 08:33:37;;;;;;;3.80;0.40;;;12.60;99.90;;;;;;6151300;23;20520;-88
2022/09/17 08:36:03;;;;;;;4.82;0.52;;;12.60;99.90;;;;;;6151775;22;20025;-93
2022/09/17 08:38:31;;;;;;;;;;;12.80;99.90;;;;;;6150691;23;20022;-90
2022/09/17 08:41:04;;;;;;;;;;;12.90;99.90;;;;;;6125866;23;19919;-88
2022/09/17 08:43:34;;;;;;;3.28;0.40;;;12.90;99.90;;;;;;6124716;23;19923;-89
2022/09/17 08:46:00;;;;;;;3.83;0.52;;;13.10;99.90;;;;;;6125798;23;20082;-87
2022/09/17 08:48:35;;;;;;;3.40;0.40;;;13.20;99.90;;;;;;6101874;23;20498;-88
2022/09/17 08:51:12;;;;;;;2.15;0.30;;;13.30;99.90;;;;;;6126958;23;20586;-90
2022/09/17 08:54:39;;;;;;;1.63;0.45;;;13.30;99.90;;;;;;6126182;23;20014;-88
2022/09/17 08:57:45;;;;;;;1.13;0.32;;;13.20;99.90;;;;;;6029242;23;20021;-87
2022/09/17 09:00:18;;;;;;;1.63;0.17;;;13.10;99.90;;;;;;6128645;23;20014;-88
2022/09/17 09:03:05;;;;;;;2.17;0.30;;;12.90;99.90;;;;;;6102109;23;20017;-84
2022/09/17 09:05:49;;;;;;;2.35;0.50;;;12.70;99.90;;;;;;6127534;23;20104;-83
2022/09/17 09:08:27;;;;;;;3.40;0.28;;;12.60;99.90;;;;;;6126171;22;20014;-87
2022/09/17 09:11:00;;;;;;;3.05;0.22;;;12.50;99.90;;;;;;6126460;23;20022;-84
2022/09/17 09:13:33;;;;;;;0.82;0.20;;;12.40;99.90;;;;;;6101692;23;20024;-86
2022/09/17 09:16:04;;;;;;;2.00;0.28;;;12.40;99.90;;;;;;6126064;23;20343;-86
2022/09/17 09:18:35;;;;;;;2.17;0.20;;;12.40;99.90;;;;;;6125976;23;20020;-89
2022/09/17 09:21:27;;;;;;;1.65;0.13;;;12.50;99.90;;;;;;6125707;23;20080;-87
2022/09/17 09:23:57;;;;;;;2.38;0.20;;;12.60;99.90;;;;;;6126624;23;20019;-88
2022/09/17 09:26:45;;;;;;;2.25;0.30;;;12.60;99.90;;;;;;6125475;23;20021;-85
2022/09/17 09:29:30;;;;;;;;;;;12.80;99.90;;;;;;6102103;23;20071;-86
2022/09/17 09:32:02;;;;;;;0.75;0.15;;;12.90;99.90;;;;;;6126001;23;19952;-87
2022/09/17 09:34:28;;;;;;;2.35;0.77;;;13.00;99.90;;;;;;6125921;23;20463;-86
2022/09/17 09:37:23;;;;;;;2.30;0.30;;;13.00;99.90;;;;;;6127457;23;20063;-88
2022/09/17 09:39:52;;;;;;;0.75;0.10;;;12.90;99.90;;;;;;6134832;23;20025;-88
2022/09/17 09:42:31;;;;;;;1.52;0.20;;;12.80;99.90;;;;;;6112845;23;20032;-88
2022/09/17 09:45:14;;;;;;;3.15;0.38;;;12.70;99.90;;;;;;6127083;23;20022;-87
2022/09/17 09:47:58;;;;;;;3.22;0.20;;;12.60;99.90;;;;;;6125647;23;20468;-89
2022/09/17 09:50:43;;;;;;;4.28;0.60;;;12.50;99.90;;;;;;6125673;23;20018;-87
2022/09/17 09:53:33;;;;;;;3.83;0.60;;;12.40;99.90;;;;;;6125213;23;20051;-88
2022/09/17 09:56:04;;;;;;;3.00;0.50;;;12.30;99.90;;;;;;6101635;23;20049;-88
2022/09/17 09:58:34;;;;;;;1.77;0.22;;;12.30;99.90;;;;;;6101108;23;20013;-88
2022/09/17 10:01:01;;;;;;;4.75;0.98;;;12.40;99.90;;;;;;6125120;23;20028;-88
2022/09/17 10:03:31;;;;;;;4.53;1.00;;;12.60;99.90;;;;;;6151381;22;20028;-87
2022/09/17 10:06:03;;;;;;;4.40;0.90;;;12.60;99.90;;;;;;6099102;23;20037;-87
2022/09/17 10:08:37;;;;;;;4.35;0.60;;;12.70;99.90;;;;;;6125189;22;20045;-88
2022/09/17 10:11:19;;;;;;;4.88;0.95;;;12.80;99.90;;;;;;6125686;23;20175;-88
2022/09/17 10:14:15;;;;;;;4.60;0.75;;;12.90;99.90;;;;;;6101598;23;20068;-88
2022/09/17 10:16:48;;;;;;;3.85;0.77;;;13.10;99.90;;;;;;6101608;23;20022;-89
2022/09/17 10:19:26;;;;;;;5.57;1.10;;;13.30;99.90;;;;;;6101159;23;20439;-88
2022/09/17 10:21:53;;;;;;;4.32;0.75;;;13.40;99.90;;;;;;6099940;23;20029;-87
2022/09/17 10:24:28;;;;;;;3.42;0.50;;;13.50;99.90;;;;;;6100945;23;20063;-86
2022/09/17 10:27:12;;;;;;;6.75;1.98;;;13.60;99.90;;;;;;6125417;23;20096;-87
2022/09/17 10:29:43;;;;;;;3.60;0.70;;;13.70;99.90;;;;;;6125477;23;20056;-83
2022/09/17 10:32:15;;;;;;;4.35;0.80;;;13.90;99.90;;;;;;6151611;23;20017;-84
2022/09/17 10:34:56;;;;;;;5.28;1.38;;;14.00;99.90;;;;;;6124425;23;20108;-84
2022/09/17 10:37:42;;;;;;;5.13;0.57;;;14.00;99.90;;;;;;6151146;23;20510;-84
2022/09/17 10:40:17;;;;;;;4.00;0.60;;;14.00;99.90;;;;;;6125522;23;20025;-89
2022/09/17 10:42:46;;;;;;;2.63;0.40;;;14.10;99.90;;;;;;6100926;23;20021;-86
2022/09/17 10:45:30;;;;;;;5.13;0.60;;;14.20;99.90;;;;;;6125846;23;20013;-87
2022/09/17 10:47:58;;;;;;;3.38;0.20;;;14.40;99.90;;;;;;6101218;23;20018;-87
2022/09/17 10:50:30;;;;;;;5.97;1.23;;;14.40;99.90;;;;;;6125425;23;20025;-87
2022/09/17 10:53:03;;;;;;;3.33;0.50;;;14.50;99.90;;;;;;6101318;23;20122;-87
2022/09/17 10:55:34;;;;;;;1.38;0.32;;;14.50;99.90;;;;;;6125800;23;20059;-87
2022/09/17 10:58:06;;;;;;;3.60;0.60;;;14.60;99.90;;;;;;6125603;23;20414;-86
2022/09/17 11:00:59;;;;;;;2.47;0.32;;;14.60;99.90;;;;;;6126151;23;20340;-86
2022/09/17 11:03:27;;;;;;;4.47;0.50;;;14.60;99.90;;;;;;6124174;23;20022;-87
2022/09/17 11:06:02;;;;;;;1.42;0.25;;;14.70;99.90;;;;;;6098733;23;20028;-87
2022/09/17 11:09:06;;;;;;;3.30;0.32;;;14.90;99.70;;;;;;6100749;23;20067;-87
2022/09/17 11:11:53;;;;;;;0.98;0.20;;;15.10;99.60;;;;;;6123743;23;20025;-87
2022/09/17 11:14:48;;;;;;;4.18;0.30;;;15.20;99.00;;;;;;6101190;23;20017;-88
2022/09/17 11:17:42;;;;;;;2.85;0.40;;;15.40;98.50;;;;;;6150271;23;20451;-87
2022/09/17 11:20:31;;;;;;;3.95;0.40;;;15.40;98.40;;;;;;6125426;23;20025;-88
2022/09/17 11:23:42;;;;;;;3.97;0.77;;;15.50;97.70;;;;;;6101119;23;20021;-88
2022/09/17 11:26:27;;;;;;;3.03;0.85;;;15.60;97.60;;;;;;6124413;23;20049;-85
2022/09/17 11:29:25;;;;;;;2.28;0.28;;;15.70;97.10;;;;;;6149517;23;20021;-89
2022/09/17 11:32:15;;;;;;;3.60;0.32;;;15.80;96.30;;;;;;6124531;23;20395;-86
2022/09/17 11:34:50;;;;;;;3.40;0.55;;;15.90;96.90;;;;;;6101363;23;20021;-86
2022/09/17 11:37:21;;;;;;;2.75;0.52;;;15.90;97.90;;;;;;6125370;23;20065;-85
2022/09/17 11:40:01;;;;;;;3.60;0.43;;;15.80;97.80;;;;;;6152058;23;20029;-86
2022/09/17 11:42:37;;;;;;;3.63;0.60;;;15.70;97.70;;;;;;6128860;23;20018;-86
2022/09/17 11:45:24;;;;;;;2.13;0.40;;;15.70;98.30;;;;;;6104882;23;20014;-86
2022/09/17 11:48:24;;;;;;;4.60;0.70;;;15.70;98.00;;;;;;6126079;23;20021;-86
2022/09/17 11:51:18;;;;;;;3.45;0.77;;;15.80;97.70;;;;;;6125312;23;20075;-85
2022/09/17 11:53:47;;;;;;;2.65;0.50;;;15.90;98.30;;;;;;6100583;23;20041;-86
2022/09/17 11:56:22;;;;;;;7.68;0.60;;;16.10;98.10;;;;;;6100864;23;20013;-88
2022/09/17 11:59:17;;;;;;;2.50;0.40;;;16.20;97.90;;;;;;6101286;23;20017;-86
2022/09/17 12:02:01;;;;;;;3.55;0.32;;;15.90;95.70;;;;;;6124381;23;20022;-87
2022/09/17 12:04:41;;;;;;;3.95;0.30;;;15.70;96.70;;;;;;6124284;23;20449;-87
2022/09/17 12:07:40;;;;;;;1.92;0.52;;;15.50;97.40;;;;;;6124656;23;20052;-85
2022/09/17 12:10:24;;;;;;;4.22;0.30;;;15.40;96.90;;;;;;6070311;23;20022;-86
2022/09/17 12:13:01;;;;;;;2.72;0.50;;;15.60;96.90;;;;;;6070979;23;20117;-87
2022/09/17 12:15:29;;;;;;;2.78;0.50;;;15.60;97.30;;;;;;6071789;23;20025;-87
2022/09/17 12:18:18;;;;;;;3.88;0.50;;;15.60;97.50;;;;;;6071602;23;20026;-88
2022/09/17 12:20:55;;;;;;;2.92;0.60;;;15.50;97.20;;;;;;6071408;23;20022;-88
2022/09/17 12:23:39;;;;;;;6.47;0.63;;;15.40;97.50;;;;;;6071709;23;20022;-87
2022/09/17 12:26:29;;;;;;;2.67;0.40;;;15.20;97.80;;;;;;6122263;23;20022;-87
2022/09/17 12:29:29;;;;;;;2.15;0.40;;;15.10;98.00;;;;;;6071573;23;20022;-87
2022/09/17 12:32:22;;;;;;;2.28;0.30;;;14.90;97.80;;;;;;6096808;23;20020;-86
2022/09/17 12:35:16;;;;;;;2.47;0.30;;;14.90;97.90;;;;;;6073284;23;20018;-86
2022/09/17 12:38:28;;;;;;;0.80;0.20;;;14.80;97.20;;;;;;6073835;23;20029;-88
2022/09/17 12:41:13;;;;;;;2.38;0.40;;;14.70;96.60;;;;;;6073631;23;20041;-88
2022/09/17 12:43:54;;;;;;;1.80;0.20;;;14.50;97.30;;;;;;6070111;23;20064;-89
2022/09/17 12:46:45;;;;;;;2.03;0.40;;;14.40;97.80;;;;;;6072392;23;20018;-89
2022/09/17 12:49:45;;;;;;;2.72;0.65;;;14.30;98.10;;;;;;6073026;23;20359;-86
2022/09/17 12:52:46;;;;;;;3.10;0.40;;;14.20;98.70;;;;;;6070698;23;20021;-86
2022/09/17 12:55:43;;;;;;;3.42;0.30;;;14.30;99.40;;;;;;6076324;23;20057;-84
2022/09/17 12:58:17;;;;;;;1.70;0.43;;;14.40;98.70;;;;;;6097087;23;20097;-86
2022/09/17 13:01:24;;;;;;;3.50;0.65;;;14.40;98.70;;;;;;6096542;23;20075;-84
2022/09/17 13:03:58;;;;;;;4.95;1.95;;;14.50;98.70;;;;;;6121983;23;20013;-88
2022/09/17 13:14:28;;;;;;;4.50;0.73;;;15.00;99.40;;;;;;6152329;23;20020;-85
2022/09/17 13:17:31;;;;;;;2.50;0.40;;;15.00;99.60;;;;;;6101831;23;20018;-90
2022/09/17 13:20:20;;;;;;;3.58;0.40;;;15.10;99.50;;;;;;6007200;23;20021;-89
2022/09/17 13:23:06;;;;;;;2.10;0.40;;;15.20;99.70;;;;;;6101970;23;20355;-91
2022/09/17 13:25:32;;;;;;;3.25;0.40;;;15.30;98.40;;;;;;6126062;23;20040;-91
2022/09/17 13:28:10;;;;;;;1.88;0.30;;;15.40;98.80;;;;;;6152592;23;20454;-91
2022/09/17 13:31:11;;;;;;;1.85;0.25;;;15.40;98.20;;;;;;6126040;23;20435;-90
2022/09/17 13:33:54;;;;;;;2.67;0.35;;;15.40;97.60;;;;;;5986222;23;20551;-94